createdAt,value
2022-07-27T00:01:00.822Z,79.82
2022-07-27T00:03:27.932Z,79.97
2022-07-27T00:05:54.923Z,80.24
2022-07-27T00:08:24.142Z,80.41
2022-07-27T00:10:52.322Z,80.51
2022-07-27T00:13:19.555Z,80.41
2022-07-27T00:15:46.478Z,81.07
2022-07-27T00:18:13.524Z,80.97
2022-07-27T00:20:41.362Z,80.10
2022-07-27T00:23:08.892Z,80.70
2022-07-27T00:25:36.327Z,80.75
2022-07-27T00:28:04.255Z,81.24
2022-07-27T00:30:31.332Z,80.73
2022-07-27T00:32:58.436Z,81.32
2022-07-27T00:35:25.600Z,81.26
2022-07-27T00:37:53.388Z,81.22
2022-07-27T00:40:20.404Z,81.09
2022-07-27T00:42:47.448Z,80.65
2022-07-27T00:45:14.669Z,81.16
2022-07-27T00:47:41.770Z,81.32
2022-07-27T00:50:09.494Z,80.76
2022-07-27T00:52:38.142Z,80.31
2022-07-27T00:55:06.529Z,80.38
2022-07-27T00:57:33.682Z,80.56
2022-07-27T01:00:21.483Z,81.26
2022-07-27T01:02:51.966Z,81.80
2022-07-27T01:05:19.242Z,81.22
2022-07-27T01:07:49.527Z,81.53
2022-07-27T01:10:18.062Z,81.21
2022-07-27T01:12:46.363Z,80.91
2022-07-27T01:15:13.914Z,80.46
2022-07-27T01:17:41.085Z,80.57
2022-07-27T01:20:08.606Z,80.55
2022-07-27T01:22:35.694Z,80.42
2022-07-27T01:25:02.662Z,80.53
2022-07-27T01:27:29.714Z,80.52
2022-07-27T01:29:56.686Z,80.48
2022-07-27T01:32:23.800Z,80.31
2022-07-27T01:34:50.807Z,81.75
2022-07-27T01:37:17.875Z,81.97
2022-07-27T01:39:45.880Z,82.31
2022-07-27T01:42:12.898Z,82.74
2022-07-27T01:44:39.927Z,82.75
2022-07-27T01:47:14.780Z,82.41
2022-07-27T01:49:42.007Z,81.98
2022-07-27T01:52:08.991Z,82.83
2022-07-27T01:54:35.999Z,83.13
2022-07-27T01:57:03.085Z,81.58
2022-07-27T01:59:30.115Z,81.93
2022-07-27T02:01:57.218Z,81.49
2022-07-27T02:04:24.990Z,81.99
2022-07-27T02:06:51.965Z,82.07
2022-07-27T02:09:20.325Z,82.07
2022-07-27T02:12:05.611Z,81.50
2022-07-27T02:14:32.592Z,82.68
2022-07-27T02:16:59.606Z,82.00
2022-07-27T02:19:26.881Z,81.93
2022-07-27T02:21:54.158Z,82.72
2022-07-27T02:24:21.199Z,81.66
2022-07-27T02:26:49.541Z,81.73
2022-07-27T02:29:16.724Z,83.02
2022-07-27T02:31:43.694Z,83.29
2022-07-27T02:34:11.521Z,83.33
2022-07-27T02:36:38.663Z,83.07
2022-07-27T02:39:05.842Z,82.84
2022-07-27T02:41:32.765Z,82.73
2022-07-27T02:43:59.752Z,83.04
2022-07-27T02:46:26.766Z,83.31
2022-07-27T02:48:54.804Z,83.52
2022-07-27T02:51:21.823Z,83.78
2022-07-27T02:53:48.895Z,84.17
2022-07-27T02:56:15.978Z,83.62
2022-07-27T02:58:42.962Z,83.70
2022-07-27T03:01:09.966Z,83.24
2022-07-27T03:03:38.357Z,83.21
2022-07-27T03:06:09.005Z,82.82
2022-07-27T03:08:36.803Z,83.07
2022-07-27T03:11:04.317Z,83.32
2022-07-27T03:13:31.451Z,83.24
2022-07-27T03:15:58.944Z,82.59
2022-07-27T03:18:26.093Z,82.06
2022-07-27T03:20:53.313Z,81.39
2022-07-27T03:23:20.374Z,81.34
2022-07-27T03:25:47.342Z,81.33
2022-07-27T03:28:14.487Z,81.55
2022-07-27T03:30:41.544Z,82.45
2022-07-27T03:33:08.721Z,82.65
2022-07-27T03:35:35.672Z,82.33
2022-07-27T03:38:02.762Z,82.72
2022-07-27T03:40:32.845Z,82.27
2022-07-27T03:43:00.891Z,82.34
2022-07-27T03:45:27.995Z,82.16
2022-07-27T03:47:55.643Z,82.02
2022-07-27T03:50:23.353Z,81.87
2022-07-27T03:52:51.997Z,81.92
2022-07-27T03:55:22.152Z,81.91
2022-07-27T03:57:49.201Z,81.68
2022-07-27T04:00:16.255Z,81.89
2022-07-27T04:02:43.516Z,82.14
2022-07-27T04:05:12.005Z,82.08
2022-07-27T04:07:39.835Z,82.60
2022-07-27T04:10:08.086Z,82.63
2022-07-27T04:12:39.774Z,82.53
2022-07-27T04:15:09.159Z,82.33
2022-07-27T04:17:55.526Z,82.13
2022-07-27T04:20:23.404Z,82.18
2022-07-27T04:22:50.351Z,82.34
2022-07-27T04:25:17.748Z,82.05
2022-07-27T04:27:44.728Z,82.10
2022-07-27T04:30:13.371Z,81.91
2022-07-27T04:32:40.403Z,82.00
2022-07-27T04:35:08.244Z,82.31
2022-07-27T04:37:35.347Z,83.13
2022-07-27T04:40:02.643Z,84.15
2022-07-27T04:42:30.293Z,83.97
2022-07-27T04:44:57.994Z,83.29
2022-07-27T04:47:24.935Z,83.41
2022-07-27T04:49:52.020Z,83.43
2022-07-27T04:52:19.434Z,83.34
2022-07-27T04:54:54.743Z,82.88
2022-07-27T04:57:23.271Z,82.95
2022-07-27T04:59:50.604Z,83.05
2022-07-27T05:02:17.723Z,82.81
2022-07-27T05:04:44.803Z,82.22
2022-07-27T05:07:11.844Z,82.61
2022-07-27T05:09:38.812Z,82.69
2022-07-27T05:12:05.886Z,82.64
2022-07-27T05:14:33.826Z,81.24
2022-07-27T05:17:00.892Z,81.41
2022-07-27T05:19:39.964Z,80.89
2022-07-27T05:22:08.506Z,80.54
2022-07-27T05:24:35.497Z,79.77
2022-07-27T05:27:02.685Z,79.09
2022-07-27T05:29:29.631Z,78.77
2022-07-27T05:31:56.731Z,78.79
2022-07-27T05:34:23.859Z,78.52
2022-07-27T05:36:50.910Z,77.68
2022-07-27T05:39:18.299Z,77.71
2022-07-27T05:41:45.611Z,77.93
2022-07-27T05:44:12.874Z,78.15
2022-07-27T05:46:40.891Z,77.45
2022-07-27T05:49:07.750Z,75.90
2022-07-27T05:51:35.200Z,75.06
2022-07-27T05:54:02.170Z,75.39
2022-07-27T05:56:29.372Z,74.01
2022-07-27T05:58:56.603Z,73.50
2022-07-27T06:01:23.770Z,72.75
2022-07-27T06:03:50.895Z,72.33
2022-07-27T06:06:36.610Z,72.49
2022-07-27T06:09:05.286Z,72.43
2022-07-27T06:11:32.293Z,72.62
2022-07-27T06:13:59.390Z,73.11
2022-07-27T06:16:26.549Z,71.68
2022-07-27T06:18:53.717Z,72.32
2022-07-27T06:21:20.851Z,72.80
2022-07-27T06:23:48.616Z,73.67
2022-07-27T06:26:15.761Z,72.66
2022-07-27T06:28:42.862Z,71.97
2022-07-27T06:31:09.941Z,71.49
2022-07-27T06:33:38.435Z,70.70
2022-07-27T06:36:08.491Z,71.53
2022-07-27T06:38:35.678Z,69.11
2022-07-27T06:41:02.684Z,69.04
2022-07-27T06:43:32.603Z,69.38
2022-07-27T06:46:00.523Z,68.20
2022-07-27T06:48:27.653Z,69.72
2022-07-27T06:50:54.868Z,65.69
2022-07-27T06:53:22.013Z,66.53
2022-07-27T06:55:50.010Z,66.40
2022-07-27T06:58:18.037Z,64.42
2022-07-27T07:00:45.674Z,62.92
2022-07-27T07:03:12.755Z,62.90
2022-07-27T07:05:46.851Z,63.15
2022-07-27T07:08:15.078Z,65.35
2022-07-27T07:10:44.415Z,66.61
2022-07-27T07:13:12.063Z,66.87
2022-07-27T07:15:41.184Z,67.21
2022-07-27T07:18:09.244Z,68.00
2022-07-27T07:20:37.616Z,68.02
2022-07-27T07:23:05.722Z,68.79
2022-07-27T07:25:34.701Z,70.09
2022-07-27T07:28:02.721Z,70.76
2022-07-27T07:30:30.203Z,71.92
2022-07-27T07:32:57.887Z,72.21
2022-07-27T07:35:25.362Z,72.22
2022-07-27T07:37:53.093Z,71.86
2022-07-27T07:43:08.832Z,71.92
2022-07-27T07:45:50.584Z,73.29
2022-07-27T07:48:20.405Z,73.31
2022-07-27T07:50:51.966Z,75.29
2022-07-27T07:53:24.637Z,76.57
2022-07-27T07:55:53.160Z,78.81
2022-07-27T07:58:21.222Z,79.29
2022-07-27T08:00:48.525Z,79.22
2022-07-27T08:03:16.379Z,78.27
2022-07-27T08:05:43.926Z,78.75
2022-07-27T08:08:11.643Z,77.08
2022-07-27T08:10:38.764Z,77.57
2022-07-27T08:13:05.854Z,77.66
2022-07-27T08:15:35.145Z,79.48
2022-07-27T08:18:05.545Z,80.53
2022-07-27T08:20:32.970Z,78.79
2022-07-27T08:23:00.841Z,77.80
2022-07-27T08:25:28.158Z,75.50
2022-07-27T08:27:55.511Z,76.38
2022-07-27T08:30:24.241Z,73.14
2022-07-27T08:33:01.268Z,72.88
2022-07-27T08:35:29.725Z,71.34
2022-07-27T08:37:58.068Z,71.21
2022-07-27T08:40:43.457Z,67.51
2022-07-27T08:43:21.779Z,66.26
2022-07-27T08:45:57.646Z,62.52
2022-07-27T08:48:26.458Z,62.59
2022-07-27T08:50:54.143Z,61.25
2022-07-27T08:53:22.369Z,58.40
2022-07-27T08:55:50.657Z,57.62
2022-07-27T08:58:18.099Z,57.76
2022-07-27T09:00:48.697Z,55.56
2022-07-27T09:03:20.068Z,55.16
2022-07-27T09:05:48.771Z,57.02
2022-07-27T09:08:30.352Z,57.07
2022-07-27T09:11:00.003Z,55.81
2022-07-27T09:13:34.529Z,54.90
2022-07-27T09:16:21.945Z,52.02
2022-07-27T09:18:58.591Z,50.80
2022-07-27T09:21:26.037Z,46.33
2022-07-27T09:23:54.294Z,47.55
2022-07-27T09:26:33.142Z,44.98
2022-07-27T09:29:14.222Z,48.00
2022-07-27T09:31:43.964Z,47.79
2022-07-27T09:34:12.442Z,47.14
2022-07-27T09:36:54.791Z,46.76
2022-07-27T09:39:24.522Z,45.30
2022-07-27T09:41:56.041Z,47.44
2022-07-27T09:44:43.545Z,46.04
2022-07-27T09:47:27.157Z,47.39
2022-07-27T09:50:17.821Z,45.76
2022-07-27T09:52:45.254Z,45.21
2022-07-27T09:55:12.444Z,46.18
2022-07-27T09:57:57.509Z,46.76
2022-07-27T10:00:27.002Z,44.54
2022-07-27T10:02:55.381Z,45.30
2022-07-27T10:05:23.497Z,45.17
2022-07-27T10:07:53.016Z,46.25
2022-07-27T10:10:20.452Z,46.61
2022-07-27T10:12:54.000Z,45.03
2022-07-27T10:15:24.108Z,45.57
2022-07-27T10:18:15.337Z,45.21
2022-07-27T10:20:47.568Z,44.73
2022-07-27T10:23:30.354Z,42.98
2022-07-27T10:26:20.800Z,43.38
2022-07-27T10:29:13.102Z,41.89
2022-07-27T10:31:42.771Z,41.46
2022-07-27T10:34:13.286Z,43.51
2022-07-27T10:36:44.629Z,42.53
2022-07-27T10:39:11.891Z,42.06
2022-07-27T10:41:44.050Z,42.78
2022-07-27T10:44:17.710Z,42.37
2022-07-27T10:47:01.772Z,42.67
2022-07-27T10:49:31.261Z,44.03
2022-07-27T10:51:59.655Z,44.05
2022-07-27T10:54:36.932Z,44.94
2022-07-27T10:57:07.015Z,41.80
2022-07-27T11:02:41.686Z,43.67
2022-07-27T11:05:37.902Z,43.77
2022-07-27T11:08:47.439Z,43.49
2022-07-27T11:10:48.652Z,44.92
2022-07-27T11:13:19.640Z,41.07
2022-07-27T11:16:26.210Z,38.78
2022-07-27T11:19:03.959Z,37.60
2022-07-27T11:21:36.770Z,39.28
2022-07-27T11:24:11.263Z,38.56
2022-07-27T11:26:52.534Z,39.55
2022-07-27T11:29:22.604Z,40.45
2022-07-27T11:31:55.927Z,39.18
2022-07-27T11:34:35.974Z,40.05
2022-07-27T11:37:12.048Z,41.07
2022-07-27T11:40:00.205Z,40.25
2022-07-27T11:42:40.343Z,41.36
2022-07-27T11:45:07.919Z,42.52
2022-07-27T11:47:36.192Z,43.08
2022-07-27T11:50:11.821Z,42.61
2022-07-27T11:52:39.017Z,41.18
2022-07-27T11:55:06.861Z,41.91
2022-07-27T11:57:36.279Z,42.23
2022-07-27T12:00:06.640Z,41.57
2022-07-27T12:02:49.052Z,42.47
2022-07-27T12:05:16.321Z,40.94
2022-07-27T12:07:44.616Z,41.55
2022-07-27T12:10:12.072Z,43.54
2022-07-27T12:12:39.183Z,42.90
2022-07-27T12:18:04.924Z,41.09
2022-07-27T12:20:34.462Z,40.88
2022-07-27T12:23:07.263Z,40.86
2022-07-27T12:25:35.693Z,42.00
2022-07-27T12:28:07.499Z,41.46
2022-07-27T12:30:47.796Z,41.72
2022-07-27T12:33:37.412Z,42.26
2022-07-27T12:36:07.176Z,42.67
2022-07-27T12:38:43.921Z,42.22
2022-07-27T12:41:22.838Z,43.62
2022-07-27T12:44:10.588Z,46.37
2022-07-27T12:47:02.577Z,46.83
2022-07-27T12:49:34.919Z,46.42
2022-07-27T12:52:09.820Z,45.15
2022-07-27T12:54:38.238Z,45.56
2022-07-27T12:57:05.254Z,46.11
2022-07-27T12:59:32.347Z,43.73
2022-07-27T13:01:59.499Z,41.41
2022-07-27T13:04:26.708Z,42.46
2022-07-27T13:06:53.654Z,41.94
2022-07-27T13:09:20.752Z,39.67
2022-07-27T13:11:48.468Z,39.21
2022-07-27T13:14:15.978Z,39.23
2022-07-27T13:16:43.135Z,39.05
2022-07-27T13:19:10.881Z,38.39
2022-07-27T13:21:38.374Z,36.68
2022-07-27T13:24:07.338Z,38.82
2022-07-27T13:26:35.023Z,37.98
2022-07-27T13:29:02.461Z,37.56
2022-07-27T13:31:29.531Z,38.01
2022-07-27T13:33:56.768Z,38.19
2022-07-27T13:36:24.214Z,38.82
2022-07-27T13:38:51.556Z,35.88
2022-07-27T13:41:18.863Z,37.34
2022-07-27T13:43:45.897Z,37.18
2022-07-27T13:46:12.952Z,39.12
2022-07-27T13:48:40.290Z,38.23
2022-07-27T13:51:07.633Z,38.21
2022-07-27T13:53:34.762Z,38.05
2022-07-27T13:56:03.503Z,39.40
2022-07-27T13:58:30.461Z,38.99
2022-07-27T14:00:57.555Z,38.20
2022-07-27T14:03:24.689Z,37.64
2022-07-27T14:05:53.595Z,38.51
2022-07-27T14:08:22.791Z,38.08
2022-07-27T14:10:51.143Z,37.89
2022-07-27T14:13:18.859Z,37.67
2022-07-27T14:15:53.255Z,38.00
2022-07-27T14:18:29.081Z,38.09
2022-07-27T14:20:58.109Z,36.40
2022-07-27T14:23:26.191Z,37.36
2022-07-27T14:25:54.014Z,36.94
2022-07-27T14:28:21.733Z,38.46
2022-07-27T14:30:48.861Z,38.50
2022-07-27T14:33:17.661Z,39.45
2022-07-27T14:35:45.501Z,39.52
2022-07-27T14:38:12.831Z,40.99
2022-07-27T14:40:41.975Z,40.99
2022-07-27T14:43:10.367Z,41.28
2022-07-27T14:45:45.332Z,41.41
2022-07-27T14:48:21.498Z,41.54
2022-07-27T14:50:52.718Z,42.04
2022-07-27T14:53:19.626Z,41.16
2022-07-27T14:55:46.603Z,41.20
2022-07-27T14:58:13.599Z,40.75
2022-07-27T15:00:41.270Z,41.13
2022-07-27T15:03:08.360Z,42.73
2022-07-27T15:05:49.915Z,42.43
2022-07-27T15:08:21.500Z,41.68
2022-07-27T15:10:49.379Z,40.80
2022-07-27T15:13:17.980Z,40.92
2022-07-27T15:15:48.761Z,40.85
2022-07-27T15:18:18.949Z,40.93
2022-07-27T15:20:46.356Z,41.06
2022-07-27T15:23:13.925Z,41.67
2022-07-27T15:25:41.016Z,41.22
2022-07-27T15:28:08.038Z,41.01
2022-07-27T15:30:38.603Z,41.73
2022-07-27T15:33:06.696Z,42.26
2022-07-27T15:35:33.565Z,42.38
2022-07-27T15:38:00.672Z,42.42
2022-07-27T15:40:42.938Z,42.80
2022-07-27T15:43:13.969Z,43.47
2022-07-27T15:45:42.410Z,42.66
2022-07-27T15:48:11.379Z,43.06
2022-07-27T15:50:40.951Z,44.14
2022-07-27T15:53:08.535Z,43.89
2022-07-27T15:55:37.731Z,43.69
2022-07-27T15:58:08.276Z,43.52
2022-07-27T16:00:40.609Z,43.15
2022-07-27T16:03:10.767Z,43.20
2022-07-27T16:05:39.676Z,43.40
2022-07-27T16:08:09.991Z,43.09
2022-07-27T16:10:38.971Z,42.45
2022-07-27T16:13:07.098Z,42.73
2022-07-27T16:15:57.666Z,43.00
2022-07-27T16:18:25.451Z,43.20
2022-07-27T16:21:11.687Z,43.13
2022-07-27T16:23:38.749Z,43.16
2022-07-27T16:26:06.905Z,43.35
2022-07-27T16:28:39.336Z,43.31
2022-07-27T16:31:09.185Z,43.65
2022-07-27T16:33:36.753Z,43.92
2022-07-27T16:36:05.520Z,43.40
2022-07-27T16:38:32.835Z,43.64
2022-07-27T16:41:00.311Z,44.11
2022-07-27T16:43:38.587Z,44.06
2022-07-27T16:46:08.839Z,43.82
2022-07-27T16:48:41.862Z,42.83
2022-07-27T16:51:14.862Z,43.52
2022-07-27T16:53:45.829Z,42.86
2022-07-27T16:56:14.777Z,43.26
2022-07-27T16:58:42.228Z,42.47
2022-07-27T17:01:09.772Z,42.87
2022-07-27T17:03:50.316Z,42.64
2022-07-27T17:06:18.977Z,42.29
2022-07-27T17:08:46.108Z,42.77
2022-07-27T17:11:13.382Z,42.43
2022-07-27T17:13:46.873Z,43.09
2022-07-27T17:16:16.466Z,42.94
2022-07-27T17:18:43.705Z,42.39
2022-07-27T17:21:13.575Z,41.98
2022-07-27T17:23:43.858Z,42.22
2022-07-27T17:26:14.060Z,42.78
2022-07-27T17:28:41.731Z,42.85
2022-07-27T17:31:11.306Z,42.41
2022-07-27T17:33:40.161Z,42.17
2022-07-27T17:36:14.010Z,42.00
2022-07-27T17:38:46.570Z,41.46
2022-07-27T17:41:19.182Z,41.04
2022-07-27T17:43:49.493Z,41.65
2022-07-27T17:46:17.399Z,41.66
2022-07-27T17:48:44.612Z,41.46
2022-07-27T17:51:12.054Z,42.31
2022-07-27T17:53:39.110Z,42.22
2022-07-27T17:56:06.194Z,42.67
2022-07-27T17:58:33.287Z,43.08
2022-07-27T18:01:00.372Z,43.06
2022-07-27T18:03:27.618Z,43.26
2022-07-27T18:05:55.072Z,43.48
2022-07-27T18:08:22.320Z,43.61
2022-07-27T18:10:51.643Z,43.30
2022-07-27T18:13:18.767Z,43.23
2022-07-27T18:15:48.695Z,42.96
2022-07-27T18:18:21.438Z,43.24
2022-07-27T18:20:52.557Z,43.31
2022-07-27T18:23:20.857Z,43.15
2022-07-27T18:25:48.072Z,43.59
2022-07-27T18:28:16.545Z,43.49
2022-07-27T18:30:44.495Z,42.85
2022-07-27T18:33:12.222Z,42.92
2022-07-27T18:35:40.076Z,43.36
2022-07-27T18:38:10.453Z,42.87
2022-07-27T18:40:39.150Z,43.02
2022-07-27T18:43:08.053Z,42.89
2022-07-27T18:45:35.098Z,43.13
2022-07-27T18:48:02.188Z,42.60
2022-07-27T18:50:29.905Z,43.23
2022-07-27T18:52:57.606Z,44.52
2022-07-27T18:55:25.368Z,45.50
2022-07-27T18:57:55.576Z,49.93
2022-07-27T19:00:24.549Z,52.17
2022-07-27T19:02:55.368Z,55.51
2022-07-27T19:05:32.502Z,57.15
2022-07-27T19:08:13.275Z,57.61
2022-07-27T19:10:42.841Z,58.67
2022-07-27T19:13:11.538Z,59.74
2022-07-27T19:15:39.832Z,59.34
2022-07-27T19:18:07.739Z,60.50
2022-07-27T19:20:37.026Z,60.85
2022-07-27T19:23:07.812Z,61.89
2022-07-27T19:25:34.984Z,62.83
2022-07-27T19:28:03.921Z,63.45
2022-07-27T19:30:32.642Z,63.74
2022-07-27T19:33:00.386Z,63.34
2022-07-27T19:35:27.757Z,63.43
2022-07-27T19:37:54.839Z,63.15
2022-07-27T19:43:09.263Z,64.14
2022-07-27T19:45:36.937Z,64.62
2022-07-27T19:48:05.854Z,64.06
2022-07-27T19:50:33.410Z,64.39
2022-07-27T19:53:01.500Z,64.04
2022-07-27T19:55:28.450Z,64.09
2022-07-27T19:57:56.473Z,64.66
2022-07-27T20:00:23.629Z,64.84
2022-07-27T20:02:51.028Z,64.88
2022-07-27T20:05:18.716Z,64.94
2022-07-27T20:07:46.062Z,65.14
2022-07-27T20:10:13.102Z,65.20
2022-07-27T20:12:40.248Z,65.57
2022-07-27T20:15:08.051Z,65.27
2022-07-27T20:17:40.627Z,64.97
2022-07-27T20:20:09.797Z,65.74
2022-07-27T20:22:39.477Z,65.86
2022-07-27T20:25:08.557Z,65.91
2022-07-27T20:27:36.202Z,64.65
2022-07-27T20:30:05.133Z,64.73
2022-07-27T20:32:32.148Z,64.91
2022-07-27T20:34:59.357Z,65.88
2022-07-27T20:37:26.406Z,65.79
2022-07-27T20:39:53.974Z,64.66
2022-07-27T20:42:20.932Z,65.06
2022-07-27T20:44:48.132Z,65.20
2022-07-27T20:47:15.249Z,65.83
2022-07-27T20:49:42.388Z,65.16
2022-07-27T20:52:09.586Z,65.40
2022-07-27T20:54:38.440Z,65.67
2022-07-27T20:57:05.578Z,65.86
2022-07-27T20:59:33.614Z,65.65
2022-07-27T21:02:01.716Z,65.87
2022-07-27T21:04:28.819Z,65.93
2022-07-27T21:06:55.892Z,66.35
2022-07-27T21:09:22.934Z,66.81
2022-07-27T21:11:50.231Z,66.56
2022-07-27T21:14:17.449Z,66.38
2022-07-27T21:16:44.528Z,67.04
2022-07-27T21:19:12.481Z,67.09
2022-07-27T21:21:40.051Z,67.42
2022-07-27T21:24:17.357Z,67.38
2022-07-27T21:26:50.353Z,68.16
2022-07-27T21:29:18.530Z,68.50
2022-07-27T21:31:50.218Z,68.30
2022-07-27T21:34:19.501Z,68.24
2022-07-27T21:36:47.295Z,67.92
2022-07-27T21:39:14.654Z,68.40
2022-07-27T21:41:42.048Z,68.88
2022-07-27T21:44:09.085Z,69.39
2022-07-27T21:46:36.533Z,69.26
2022-07-27T21:49:04.809Z,69.75
2022-07-27T21:51:31.893Z,69.65
2022-07-27T21:53:58.961Z,69.91
2022-07-27T21:56:26.205Z,69.79
2022-07-27T21:58:53.265Z,70.26
2022-07-27T22:01:20.438Z,70.57
2022-07-27T22:03:48.001Z,70.43
2022-07-27T22:06:15.181Z,70.94
2022-07-27T22:08:42.222Z,70.65
2022-07-27T22:11:09.972Z,70.28
2022-07-27T22:13:37.045Z,70.50
2022-07-27T22:16:05.430Z,70.61
2022-07-27T22:18:32.530Z,70.50
2022-07-27T22:20:59.658Z,70.26
2022-07-27T22:23:26.732Z,70.35
2022-07-27T22:25:53.731Z,70.43
2022-07-27T22:28:25.454Z,70.70
2022-07-27T22:31:15.556Z,70.27
2022-07-27T22:33:40.450Z,70.75
2022-07-27T22:36:12.924Z,70.96
2022-07-27T22:38:40.222Z,70.99
2022-07-27T22:41:08.286Z,70.39
2022-07-27T22:43:35.414Z,70.22
2022-07-27T22:46:04.142Z,70.15
2022-07-27T22:48:31.338Z,70.17
2022-07-27T22:50:58.430Z,69.47
2022-07-27T22:53:25.447Z,69.43
2022-07-27T22:55:52.613Z,69.44
2022-07-27T22:58:19.634Z,69.25
2022-07-27T23:00:46.864Z,69.14
2022-07-27T23:03:13.885Z,69.93
2022-07-27T23:05:40.917Z,69.86
2022-07-27T23:08:08.014Z,70.85
2022-07-27T23:10:47.136Z,71.65
2022-07-27T23:13:16.202Z,72.18
2022-07-27T23:15:44.663Z,72.33
2022-07-27T23:18:12.943Z,72.14
2022-07-27T23:20:40.295Z,72.02
2022-07-27T23:23:12.469Z,72.26
2022-07-27T23:25:43.286Z,71.91
2022-07-27T23:28:10.525Z,71.49
2022-07-27T23:30:37.805Z,71.39
2022-07-27T23:33:04.945Z,71.26
2022-07-27T23:35:32.547Z,71.60
2022-07-27T23:38:00.746Z,71.88
2022-07-27T23:40:28.215Z,72.00
2022-07-27T23:42:55.165Z,72.26
2022-07-27T23:45:22.286Z,72.47
2022-07-27T23:47:49.494Z,72.82
2022-07-27T23:50:16.533Z,72.92
2022-07-27T23:52:43.973Z,73.43
2022-07-27T23:55:11.326Z,73.32
2022-07-27T23:57:38.264Z,72.38
